createdAt,value
2022-09-11T00:00:39.952Z,0.00
2022-09-11T00:01:39.998Z,0.00
2022-09-11T00:02:39.960Z,0.00
2022-09-11T00:03:39.964Z,0.00
2022-09-11T00:04:39.951Z,0.00
2022-09-11T00:05:39.931Z,0.00
2022-09-11T00:06:39.899Z,0.00
2022-09-11T00:07:39.897Z,0.00
2022-09-11T00:08:39.881Z,0.00
2022-09-11T00:09:39.908Z,0.00
2022-09-11T00:10:39.868Z,0.00
2022-09-11T00:11:39.860Z,0.00
2022-09-11T00:12:39.857Z,0.00
2022-09-11T00:13:39.883Z,0.00
2022-09-11T00:14:39.864Z,0.00
2022-09-11T00:15:39.867Z,0.00
2022-09-11T00:16:39.824Z,0.00
2022-09-11T00:17:39.818Z,0.00
2022-09-11T00:18:39.808Z,0.00
2022-09-11T00:19:39.821Z,0.00
2022-09-11T00:20:39.882Z,0.00
2022-09-11T00:21:39.776Z,0.00
2022-09-11T00:22:39.852Z,0.00
2022-09-11T00:23:39.795Z,0.00
2022-09-11T00:24:39.777Z,0.00
2022-09-11T00:25:39.738Z,0.00
2022-09-11T00:26:39.730Z,0.00
2022-09-11T00:27:39.720Z,0.00
2022-09-11T00:28:39.726Z,0.00
2022-09-11T00:29:39.726Z,0.00
2022-09-11T00:30:39.693Z,0.00
2022-09-11T00:31:39.966Z,0.00
2022-09-11T00:32:39.675Z,0.00
2022-09-11T00:33:39.722Z,0.00
2022-09-11T00:34:39.766Z,0.00
2022-09-11T00:35:39.652Z,0.00
2022-09-11T00:36:39.643Z,0.00
2022-09-11T00:37:39.633Z,0.00
2022-09-11T00:38:39.619Z,0.00
2022-09-11T00:39:39.685Z,0.00
2022-09-11T00:40:39.621Z,0.00
2022-09-11T00:41:39.607Z,0.00
2022-09-11T00:42:39.595Z,0.00
2022-09-11T00:43:39.591Z,0.00
2022-09-11T00:44:39.598Z,0.00
2022-09-11T00:45:39.643Z,0.00
2022-09-11T00:46:39.553Z,0.00
2022-09-11T00:47:39.571Z,0.00
2022-09-11T00:48:39.541Z,0.00
2022-09-11T00:49:39.555Z,0.00
2022-09-11T00:50:39.553Z,0.00
2022-09-11T00:51:39.520Z,0.00
2022-09-11T00:52:39.507Z,0.00
2022-09-11T00:53:39.541Z,0.00
2022-09-11T00:54:39.513Z,0.00
2022-09-11T00:55:39.484Z,0.00
2022-09-11T00:56:39.476Z,0.00
2022-09-11T00:57:39.474Z,0.00
2022-09-11T00:58:39.509Z,0.00
2022-09-11T00:59:39.476Z,0.00
2022-09-11T01:00:39.688Z,0.00
2022-09-11T01:01:39.481Z,0.00
2022-09-11T01:02:39.415Z,0.00
2022-09-11T01:03:39.432Z,0.00
2022-09-11T01:04:39.440Z,0.00
2022-09-11T01:05:39.429Z,0.00
2022-09-11T01:06:39.384Z,0.00
2022-09-11T01:07:39.384Z,0.00
2022-09-11T01:08:39.439Z,0.00
2022-09-11T01:09:39.392Z,0.00
2022-09-11T01:10:39.355Z,0.00
2022-09-11T01:11:39.355Z,0.00
2022-09-11T01:12:39.338Z,0.00
2022-09-11T01:13:39.497Z,0.00
2022-09-11T01:14:39.353Z,0.00
2022-09-11T01:15:39.313Z,0.00
2022-09-11T01:16:40.330Z,0.00
2022-09-11T01:17:39.304Z,0.00
2022-09-11T01:18:39.290Z,0.00
2022-09-11T01:19:39.328Z,0.00
2022-09-11T01:20:39.268Z,0.00
2022-09-11T01:21:39.387Z,0.00
2022-09-11T01:24:04.804Z,0.00
2022-09-11T01:25:04.797Z,0.00
2022-09-11T01:26:04.790Z,0.00
2022-09-11T01:27:04.812Z,0.00
2022-09-11T01:28:04.785Z,0.00
2022-09-11T01:29:04.765Z,0.00
2022-09-11T01:30:07.195Z,0.00
2022-09-11T01:31:04.805Z,0.00
2022-09-11T01:32:04.752Z,0.00
2022-09-11T01:33:05.894Z,0.00
2022-09-11T01:34:05.874Z,0.00
2022-09-11T01:35:05.888Z,0.00
2022-09-11T01:36:05.859Z,0.00
2022-09-11T01:37:05.847Z,0.00
2022-09-11T01:38:05.915Z,0.00
2022-09-11T01:39:05.831Z,0.00
2022-09-11T01:40:05.927Z,0.00
2022-09-11T01:41:05.819Z,0.00
2022-09-11T01:42:05.809Z,0.00
2022-09-11T01:43:05.788Z,0.00
2022-09-11T01:44:05.798Z,0.00
2022-09-11T01:45:05.801Z,0.00
2022-09-11T01:46:05.784Z,0.00
2022-09-11T01:47:05.757Z,0.00
2022-09-11T01:48:05.837Z,0.00
2022-09-11T01:49:05.742Z,0.00
2022-09-11T01:50:05.768Z,0.00
2022-09-11T01:51:05.731Z,0.00
2022-09-11T01:52:05.727Z,0.00
2022-09-11T01:53:05.707Z,0.00
2022-09-11T01:54:05.723Z,0.00
2022-09-11T01:55:05.728Z,0.00
2022-09-11T01:56:05.735Z,0.00
2022-09-11T01:57:05.674Z,0.00
2022-09-11T01:58:05.672Z,0.00
2022-09-11T01:59:05.678Z,0.00
2022-09-11T02:00:05.683Z,0.00
2022-09-11T02:01:05.679Z,0.00
2022-09-11T02:02:05.753Z,0.00
2022-09-11T02:03:05.636Z,0.00
2022-09-11T02:04:05.690Z,0.00
2022-09-11T02:05:05.749Z,0.00
2022-09-11T02:06:05.608Z,0.00
2022-09-11T02:07:05.678Z,0.00
2022-09-11T02:08:05.591Z,0.00
2022-09-11T02:09:05.577Z,0.00
2022-09-11T02:10:05.636Z,0.00
2022-09-11T02:11:05.567Z,0.00
2022-09-11T02:12:05.625Z,0.00
2022-09-11T02:13:05.581Z,0.00
2022-09-11T02:14:05.537Z,0.00
2022-09-11T02:15:05.764Z,0.00
2022-09-11T02:16:05.584Z,0.00
2022-09-11T02:17:05.509Z,0.00
2022-09-11T02:18:05.501Z,0.00
2022-09-11T02:19:05.493Z,0.00
2022-09-11T02:20:05.511Z,0.00
2022-09-11T02:21:05.562Z,0.00
2022-09-11T02:22:05.471Z,0.00
2022-09-11T02:23:05.463Z,0.00
2022-09-11T02:24:05.461Z,0.00
2022-09-11T02:25:05.469Z,0.00
2022-09-11T02:26:05.448Z,0.00
2022-09-11T02:27:05.428Z,0.00
2022-09-11T02:28:05.417Z,0.00
2022-09-11T02:29:05.407Z,0.00
2022-09-11T02:30:05.423Z,0.00
2022-09-11T02:31:05.477Z,0.00
2022-09-11T02:32:05.393Z,0.00
2022-09-11T02:33:05.398Z,0.00
2022-09-11T02:34:05.432Z,0.00
2022-09-11T02:35:05.384Z,0.00
2022-09-11T02:36:05.348Z,0.00
2022-09-11T02:37:05.342Z,0.00
2022-09-11T02:38:05.326Z,0.00
2022-09-11T02:39:05.320Z,0.00
2022-09-11T02:40:05.397Z,0.00
2022-09-11T02:41:05.298Z,0.00
2022-09-11T02:42:05.339Z,0.00
2022-09-11T02:43:05.282Z,0.00
2022-09-11T02:44:05.326Z,0.00
2022-09-11T02:45:05.298Z,0.00
2022-09-11T02:46:05.306Z,0.00
2022-09-11T02:47:05.285Z,0.00
2022-09-11T02:48:05.257Z,0.00
2022-09-11T02:49:05.235Z,0.00
2022-09-11T02:50:05.257Z,0.00
2022-09-11T02:51:05.233Z,0.00
2022-09-11T02:52:05.232Z,0.00
2022-09-11T02:53:05.226Z,0.00
2022-09-11T02:54:05.191Z,0.00
2022-09-11T02:55:05.237Z,0.00
2022-09-11T02:56:05.174Z,0.00
2022-09-11T02:57:05.177Z,0.00
2022-09-11T02:58:05.162Z,0.00
2022-09-11T02:59:05.148Z,0.00
2022-09-11T03:00:05.174Z,0.00
2022-09-11T03:01:05.201Z,0.00
2022-09-11T03:02:05.138Z,0.00
2022-09-11T03:03:05.141Z,0.00
2022-09-11T03:04:05.109Z,0.00
2022-09-11T03:05:05.143Z,0.00
2022-09-11T03:06:05.113Z,0.00
2022-09-11T03:07:05.084Z,0.00
2022-09-11T03:08:05.074Z,0.00
2022-09-11T03:09:05.072Z,0.00
2022-09-11T03:10:05.102Z,0.00
2022-09-11T03:11:05.061Z,0.00
2022-09-11T03:12:05.104Z,0.00
2022-09-11T03:13:05.045Z,0.00
2022-09-11T03:14:05.044Z,0.00
2022-09-11T03:15:05.060Z,0.00
2022-09-11T03:16:05.065Z,0.00
2022-09-11T03:17:05.028Z,0.00
2022-09-11T03:18:04.989Z,0.00
2022-09-11T03:19:05.016Z,0.00
2022-09-11T03:20:05.017Z,0.00
2022-09-11T03:21:04.972Z,0.00
2022-09-11T03:22:04.972Z,0.00
2022-09-11T03:23:04.957Z,0.00
2022-09-11T03:24:04.950Z,0.00
2022-09-11T03:25:04.975Z,0.00
2022-09-11T03:26:04.935Z,0.00
2022-09-11T03:27:04.921Z,0.00
2022-09-11T03:28:04.913Z,0.00
2022-09-11T03:29:04.903Z,0.00
2022-09-11T03:30:04.893Z,0.00
2022-09-11T03:31:04.944Z,0.00
2022-09-11T03:32:04.907Z,0.00
2022-09-11T03:33:04.874Z,0.00
2022-09-11T03:34:04.863Z,0.00
2022-09-11T03:35:04.899Z,0.00
2022-09-11T03:36:04.867Z,0.00
2022-09-11T03:37:05.845Z,0.00
2022-09-11T03:38:04.842Z,0.00
2022-09-11T03:39:04.829Z,0.00
2022-09-11T03:40:04.869Z,0.00
2022-09-11T03:41:04.844Z,0.00
2022-09-11T03:42:04.800Z,0.00
2022-09-11T03:43:04.787Z,0.00
2022-09-11T03:44:04.778Z,0.00
2022-09-11T03:45:04.770Z,0.00
2022-09-11T03:46:04.850Z,0.00
2022-09-11T03:47:04.755Z,0.00
2022-09-11T03:48:04.766Z,0.00
2022-09-11T03:49:04.738Z,0.00
2022-09-11T03:50:04.731Z,0.00
2022-09-11T03:51:04.750Z,0.00
2022-09-11T03:52:04.715Z,0.00
2022-09-11T03:53:04.710Z,0.00
2022-09-11T03:54:04.737Z,0.00
2022-09-11T03:55:04.691Z,0.00
2022-09-11T03:56:04.714Z,0.00
2022-09-11T03:57:04.670Z,0.00
2022-09-11T03:58:04.666Z,0.00
2022-09-11T03:59:04.654Z,0.00
2022-09-11T04:00:04.645Z,0.00
2022-09-11T04:01:04.704Z,0.00
2022-09-11T04:02:04.674Z,0.00
2022-09-11T04:03:04.622Z,0.00
2022-09-11T04:04:04.647Z,0.00
2022-09-11T04:05:04.680Z,0.00
2022-09-11T04:06:04.624Z,0.00
2022-09-11T04:07:04.633Z,0.00
2022-09-11T04:08:04.585Z,0.00
2022-09-11T04:09:04.583Z,0.00
2022-09-11T04:10:04.599Z,0.00
2022-09-11T04:11:04.588Z,0.00
2022-09-11T04:12:04.556Z,0.00
2022-09-11T04:13:04.553Z,0.00
2022-09-11T04:14:04.545Z,0.00
2022-09-11T04:15:04.579Z,0.00
2022-09-11T04:16:04.634Z,0.00
2022-09-11T04:17:04.517Z,0.00
2022-09-11T04:18:05.678Z,0.00
2022-09-11T04:19:05.488Z,0.00
2022-09-11T04:20:04.490Z,0.00
2022-09-11T04:21:04.518Z,0.00
2022-09-11T04:22:04.476Z,0.00
2022-09-11T04:23:04.479Z,0.00
2022-09-11T04:24:04.447Z,0.00
2022-09-11T04:25:04.440Z,0.00
2022-09-11T04:26:04.498Z,4.00
2022-09-11T04:27:04.426Z,4.00
2022-09-11T04:28:04.418Z,4.00
2022-09-11T04:29:04.418Z,0.00
2022-09-11T04:30:04.415Z,4.00
2022-09-11T04:31:04.426Z,4.00
2022-09-11T04:32:04.388Z,4.00
2022-09-11T04:33:04.383Z,8.00
2022-09-11T04:34:04.372Z,8.00
2022-09-11T04:35:04.360Z,8.00
2022-09-11T04:36:04.385Z,12.00
2022-09-11T04:37:04.342Z,12.00
2022-09-11T04:38:04.338Z,16.00
2022-09-11T04:39:04.331Z,20.00
2022-09-11T04:40:04.485Z,16.00
2022-09-11T04:41:04.351Z,24.00
2022-09-11T04:42:04.311Z,24.00
2022-09-11T04:43:04.294Z,28.00
2022-09-11T04:44:05.679Z,32.00
2022-09-11T04:45:05.302Z,36.00
2022-09-11T04:46:04.387Z,40.00
2022-09-11T04:47:04.280Z,44.00
2022-09-11T04:48:04.266Z,56.00
2022-09-11T04:49:04.262Z,60.00
2022-09-11T04:50:04.250Z,60.00
2022-09-11T04:51:04.265Z,56.00
2022-09-11T04:52:04.224Z,60.00
2022-09-11T04:53:04.286Z,64.00
2022-09-11T04:54:04.199Z,76.00
2022-09-11T04:55:04.292Z,80.00
2022-09-11T04:56:04.224Z,88.00
2022-09-11T04:57:04.177Z,92.00
2022-09-11T04:58:04.168Z,96.00
2022-09-11T04:59:04.165Z,108.00
2022-09-11T05:00:04.151Z,112.00
2022-09-11T05:01:04.317Z,116.00
2022-09-11T05:02:04.237Z,120.00
2022-09-11T05:03:04.122Z,128.00
2022-09-11T05:04:04.119Z,128.00
2022-09-11T05:05:04.112Z,128.00
2022-09-11T05:06:04.130Z,140.00
2022-09-11T05:07:04.089Z,160.00
2022-09-11T05:08:04.087Z,208.00
2022-09-11T05:09:04.081Z,236.00
2022-09-11T05:10:04.072Z,248.00
2022-09-11T05:11:04.088Z,272.00
2022-09-11T05:12:04.070Z,284.00
2022-09-11T05:13:04.037Z,300.00
2022-09-11T05:14:04.031Z,296.00
2022-09-11T05:15:04.016Z,268.00
2022-09-11T05:16:05.113Z,260.00
2022-09-11T05:17:04.001Z,300.00
2022-09-11T05:18:04.000Z,336.00
2022-09-11T05:19:03.984Z,340.00
2022-09-11T05:20:06.628Z,348.00
2022-09-11T05:21:03.996Z,356.00
2022-09-11T05:22:03.966Z,368.00
2022-09-11T05:23:03.946Z,388.00
2022-09-11T05:24:03.950Z,396.00
2022-09-11T05:25:03.944Z,432.00
2022-09-11T05:26:04.005Z,472.00
2022-09-11T05:27:03.921Z,528.00
2022-09-11T05:28:03.909Z,568.00
2022-09-11T05:29:04.004Z,608.00
2022-09-11T05:30:03.896Z,616.00
2022-09-11T05:31:03.923Z,608.00
2022-09-11T05:32:03.909Z,612.00
2022-09-11T05:33:03.877Z,600.00
2022-09-11T05:34:03.854Z,604.00
2022-09-11T05:35:03.847Z,636.00
2022-09-11T05:36:03.884Z,640.00
2022-09-11T05:37:03.829Z,664.00
2022-09-11T05:38:03.834Z,740.00
2022-09-11T05:39:03.830Z,832.00
2022-09-11T05:40:03.846Z,920.00
2022-09-11T05:41:03.836Z,1108.00
2022-09-11T05:42:03.830Z,1216.00
2022-09-11T05:43:03.797Z,1212.00
2022-09-11T05:44:03.787Z,1196.00
2022-09-11T05:45:03.775Z,1160.00
2022-09-11T05:46:03.837Z,1132.00
2022-09-11T05:47:03.774Z,1100.00
2022-09-11T05:48:03.752Z,1056.00
2022-09-11T05:49:03.759Z,1152.00
2022-09-11T05:50:03.731Z,1280.00
2022-09-11T05:51:03.714Z,1216.00
2022-09-11T05:52:03.742Z,1200.00
2022-09-11T05:53:03.694Z,1228.00
2022-09-11T05:54:03.689Z,1320.00
2022-09-11T05:55:03.709Z,1476.00
2022-09-11T05:56:03.689Z,1516.00
2022-09-11T05:57:07.618Z,1492.00
2022-09-11T05:58:04.657Z,1528.00
2022-09-11T05:59:03.651Z,1656.00
2022-09-11T06:00:03.656Z,1560.00
2022-09-11T06:01:03.656Z,1364.00
2022-09-11T06:02:03.698Z,1236.00
2022-09-11T06:03:03.656Z,1140.00
2022-09-11T06:04:03.607Z,1052.00
2022-09-11T06:05:03.612Z,1012.00
2022-09-11T06:06:03.626Z,1028.00
2022-09-11T06:07:03.615Z,1048.00
2022-09-11T06:08:03.590Z,1032.00
2022-09-11T06:09:03.562Z,1004.00
2022-09-11T06:10:03.656Z,1008.00
2022-09-11T06:11:03.558Z,1004.00
2022-09-11T06:12:03.585Z,1024.00
2022-09-11T06:13:03.569Z,1080.00
2022-09-11T06:14:03.538Z,1192.00
2022-09-11T06:15:03.516Z,1264.00
2022-09-11T06:16:03.506Z,1492.00
2022-09-11T06:17:03.526Z,1584.00
2022-09-11T06:18:03.498Z,1488.00
2022-09-11T06:19:03.475Z,1388.00
2022-09-11T06:20:03.469Z,1280.00
2022-09-11T06:21:03.525Z,1348.00
2022-09-11T06:22:03.477Z,1520.00
2022-09-11T06:23:07.335Z,1632.00
2022-09-11T06:24:05.573Z,1692.00
2022-09-11T06:25:03.428Z,1720.00
2022-09-11T06:26:03.419Z,1688.00
2022-09-11T06:27:03.444Z,1756.00
2022-09-11T06:28:03.407Z,1772.00
2022-09-11T06:29:03.396Z,1776.00
2022-09-11T06:30:03.392Z,1784.00
2022-09-11T06:31:03.401Z,1872.00
2022-09-11T06:32:03.402Z,2216.00
2022-09-11T06:33:03.363Z,2564.00
2022-09-11T06:34:03.348Z,2564.00
2022-09-11T06:35:03.340Z,2408.00
2022-09-11T06:36:03.336Z,2544.00
2022-09-11T06:37:03.361Z,2632.00
2022-09-11T06:38:03.322Z,2828.00
2022-09-11T06:39:03.315Z,3116.00
2022-09-11T06:40:03.360Z,3276.00
2022-09-11T06:41:03.294Z,3448.00
2022-09-11T06:42:03.324Z,3812.00
2022-09-11T06:43:03.275Z,4096.00
2022-09-11T06:44:03.269Z,3776.00
2022-09-11T06:45:03.265Z,3592.00
2022-09-11T06:46:03.365Z,3460.00
2022-09-11T06:47:03.272Z,3848.00
2022-09-11T06:48:03.261Z,3984.00
2022-09-11T06:49:03.227Z,4244.00
2022-09-11T06:50:03.435Z,4904.00
2022-09-11T06:51:03.224Z,5248.00
2022-09-11T06:52:03.232Z,5164.00
2022-09-11T06:53:03.196Z,5440.00
2022-09-11T06:54:03.185Z,5676.00
2022-09-11T06:55:03.172Z,5340.00
2022-09-11T06:56:03.167Z,5000.00
2022-09-11T06:57:03.193Z,5024.00
2022-09-11T06:58:03.171Z,4968.00
2022-09-11T06:59:03.146Z,4708.00
2022-09-11T07:00:03.131Z,4684.00
2022-09-11T07:01:04.235Z,4612.00
2022-09-11T07:02:03.204Z,4364.00
2022-09-11T07:03:03.105Z,4472.00
2022-09-11T07:04:03.103Z,4320.00
2022-09-11T07:05:03.095Z,4328.00
2022-09-11T07:06:03.094Z,4132.00
2022-09-11T07:07:03.115Z,4152.00
2022-09-11T07:08:03.078Z,4544.00
2022-09-11T07:09:03.093Z,4684.00
2022-09-11T07:10:03.107Z,4332.00
2022-09-11T07:11:03.051Z,4116.00
2022-09-11T07:12:03.275Z,4780.00
2022-09-11T07:13:03.047Z,5364.00
2022-09-11T07:14:03.026Z,5392.00
2022-09-11T07:15:03.039Z,4960.00
2022-09-11T07:16:03.011Z,4900.00
2022-09-11T07:17:03.025Z,5236.00
2022-09-11T07:18:03.012Z,5652.00
2022-09-11T07:19:02.982Z,5988.00
2022-09-11T07:20:02.983Z,5792.00
2022-09-11T07:21:02.967Z,4636.00
2022-09-11T07:22:02.986Z,3988.00
2022-09-11T07:23:02.949Z,3976.00
2022-09-11T07:24:02.938Z,4020.00
2022-09-11T07:25:07.100Z,4184.00
2022-09-11T07:26:03.930Z,4424.00
2022-09-11T07:27:02.936Z,4784.00
2022-09-11T07:28:02.906Z,5544.00
2022-09-11T07:29:02.898Z,6608.00
2022-09-11T07:30:02.888Z,7764.00
2022-09-11T07:31:02.907Z,9788.00
2022-09-11T07:32:02.899Z,11980.00
2022-09-11T07:33:02.869Z,13384.00
2022-09-11T07:34:02.869Z,14604.00
2022-09-11T07:35:02.859Z,14252.00
2022-09-11T07:36:02.865Z,16004.00
2022-09-11T07:37:02.872Z,13128.00
2022-09-11T07:38:02.829Z,11724.00
2022-09-11T07:39:02.815Z,11092.00
2022-09-11T07:40:02.852Z,11864.00
2022-09-11T07:41:02.805Z,13976.00
2022-09-11T07:42:02.822Z,20256.00
2022-09-11T07:43:02.788Z,29952.00
2022-09-11T07:44:02.780Z,35552.00
2022-09-11T07:45:02.770Z,26272.00
2022-09-11T07:46:02.814Z,17888.00
2022-09-11T07:47:02.782Z,11328.00
2022-09-11T07:48:02.747Z,9904.00
2022-09-11T07:49:02.741Z,8920.00
2022-09-11T07:50:02.772Z,8560.00
2022-09-11T07:51:02.721Z,8708.00
2022-09-11T07:52:02.752Z,9080.00
2022-09-11T07:53:02.705Z,9880.00
2022-09-11T07:54:02.691Z,9384.00
2022-09-11T07:55:02.691Z,8480.00
2022-09-11T07:56:02.685Z,7456.00
2022-09-11T07:57:02.715Z,6740.00
2022-09-11T07:58:02.684Z,6336.00
2022-09-11T07:59:02.658Z,6844.00
2022-09-11T08:00:02.647Z,8336.00
2022-09-11T08:01:02.642Z,11720.00
2022-09-11T08:02:02.715Z,51488.00
2022-09-11T08:03:02.649Z,15852.00
2022-09-11T08:04:02.616Z,13512.00
2022-09-11T08:05:02.613Z,12000.00
2022-09-11T08:06:02.602Z,12872.00
2022-09-11T08:07:02.619Z,13292.00
2022-09-11T08:08:02.583Z,13028.00
2022-09-11T08:09:02.583Z,14544.00
2022-09-11T08:10:26.202Z,23840.00
2022-09-11T08:11:04.552Z,22240.00
2022-09-11T08:12:02.579Z,52864.00
2022-09-11T08:13:02.573Z,24960.00
2022-09-11T08:14:02.522Z,25760.00
2022-09-11T08:15:02.524Z,69664.00
2022-09-11T08:16:02.505Z,77152.00
2022-09-11T08:17:02.512Z,78880.00
2022-09-11T08:18:02.529Z,79968.00
2022-09-11T08:19:02.489Z,51936.00
2022-09-11T08:20:02.488Z,32224.00
2022-09-11T08:21:02.473Z,22816.00
2022-09-11T08:22:02.462Z,18848.00
2022-09-11T08:23:02.479Z,17024.00
2022-09-11T08:24:02.446Z,16500.00
2022-09-11T08:25:02.435Z,16864.00
2022-09-11T08:26:02.438Z,17056.00
2022-09-11T08:27:02.425Z,17408.00
2022-09-11T08:28:02.453Z,17824.00
2022-09-11T08:29:02.415Z,17824.00
2022-09-11T08:30:02.398Z,16184.00
2022-09-11T08:31:02.420Z,17056.00
2022-09-11T08:32:02.637Z,25152.00
2022-09-11T08:33:03.408Z,22880.00
2022-09-11T08:34:02.370Z,14248.00
2022-09-11T08:35:02.359Z,13968.00
2022-09-11T08:36:02.360Z,12976.00
2022-09-11T08:37:02.351Z,11948.00
2022-09-11T08:38:02.359Z,11448.00
2022-09-11T08:39:03.347Z,11372.00
2022-09-11T08:40:02.335Z,11492.00
2022-09-11T08:41:02.307Z,11472.00
2022-09-11T08:42:03.305Z,11392.00
2022-09-11T08:43:02.327Z,11344.00
2022-09-11T08:44:02.293Z,11288.00
2022-09-11T08:45:02.351Z,11196.00
2022-09-11T08:46:02.325Z,11068.00
2022-09-11T08:47:02.267Z,10796.00
2022-09-11T08:48:02.285Z,10392.00
2022-09-11T08:49:02.253Z,10032.00
2022-09-11T08:50:02.240Z,9660.00
2022-09-11T08:51:02.236Z,9232.00
2022-09-11T08:52:02.222Z,8880.00
2022-09-11T08:53:02.250Z,8640.00
2022-09-11T08:54:02.213Z,8628.00
2022-09-11T08:55:02.207Z,8860.00
2022-09-11T08:56:02.197Z,9320.00
2022-09-11T08:57:02.204Z,9980.00
2022-09-11T08:58:02.213Z,10852.00
2022-09-11T08:59:02.177Z,13472.00
2022-09-11T09:00:02.163Z,13004.00
2022-09-11T09:01:02.253Z,13936.00
2022-09-11T09:02:02.188Z,13360.00
2022-09-11T09:03:02.169Z,11328.00
2022-09-11T09:04:02.130Z,10756.00
2022-09-11T09:05:02.126Z,10524.00
2022-09-11T09:06:02.118Z,10468.00
2022-09-11T09:07:02.103Z,10504.00
2022-09-11T09:08:02.137Z,10428.00
2022-09-11T09:09:02.179Z,10200.00
2022-09-11T09:10:02.077Z,10000.00
2022-09-11T09:11:02.077Z,9952.00
2022-09-11T09:12:02.079Z,10020.00
2022-09-11T09:13:02.095Z,10228.00
2022-09-11T09:14:02.045Z,10368.00
2022-09-11T09:15:02.039Z,10312.00
2022-09-11T09:16:02.117Z,10040.00
2022-09-11T09:17:02.024Z,9912.00
2022-09-11T09:18:02.066Z,9928.00
2022-09-11T09:19:02.014Z,9960.00
2022-09-11T09:20:02.005Z,9852.00
2022-09-11T09:21:01.997Z,9616.00
2022-09-11T09:22:02.002Z,9344.00
2022-09-11T09:23:02.002Z,9160.00
2022-09-11T09:24:01.970Z,8980.00
2022-09-11T09:25:01.972Z,8968.00
2022-09-11T09:26:01.945Z,8976.00
2022-09-11T09:27:01.942Z,8960.00
2022-09-11T09:28:01.962Z,9004.00
2022-09-11T09:29:01.924Z,9144.00
2022-09-11T09:30:01.917Z,9452.00
2022-09-11T09:31:01.942Z,9712.00
2022-09-11T09:32:01.898Z,9736.00
2022-09-11T09:33:01.917Z,9708.00
2022-09-11T09:34:01.880Z,9796.00
2022-09-11T09:35:01.877Z,9864.00
2022-09-11T09:36:01.866Z,9564.00
2022-09-11T09:37:01.860Z,9004.00
2022-09-11T09:38:01.886Z,8468.00
2022-09-11T09:39:01.847Z,8060.00
2022-09-11T09:40:01.929Z,7728.00
2022-09-11T09:41:01.840Z,7432.00
2022-09-11T09:42:01.818Z,7204.00
2022-09-11T09:43:01.853Z,7116.00
2022-09-11T09:44:01.805Z,7168.00
2022-09-11T09:45:01.798Z,7320.00
2022-09-11T09:46:01.856Z,7508.00
2022-09-11T09:47:01.778Z,7684.00
2022-09-11T09:48:01.801Z,7816.00
2022-09-11T09:49:01.764Z,8036.00
2022-09-11T09:50:01.755Z,8320.00
2022-09-11T09:51:01.743Z,8476.00
2022-09-11T09:52:04.380Z,8676.00
2022-09-11T09:53:02.755Z,8788.00
2022-09-11T09:54:01.775Z,9036.00
2022-09-11T09:55:01.698Z,9096.00
2022-09-11T09:56:02.704Z,9108.00
2022-09-11T09:57:01.697Z,9540.00
2022-09-11T09:58:01.686Z,9896.00
2022-09-11T09:59:01.730Z,9956.00
2022-09-11T10:00:02.658Z,9932.00
2022-09-11T10:01:02.712Z,9872.00
2022-09-11T10:02:01.719Z,9892.00
2022-09-11T10:03:01.673Z,9924.00
2022-09-11T10:04:01.638Z,10064.00
2022-09-11T10:05:01.630Z,10392.00
2022-09-11T10:06:01.621Z,10964.00
2022-09-11T10:07:01.616Z,11424.00
2022-09-11T10:08:01.630Z,11832.00
2022-09-11T10:09:03.575Z,12080.00
2022-09-11T10:10:02.594Z,12252.00
2022-09-11T10:11:01.577Z,12532.00
2022-09-11T10:12:01.570Z,12792.00
2022-09-11T10:13:18.144Z,12920.00
2022-09-11T10:14:03.550Z,12940.00
2022-09-11T10:15:01.546Z,12948.00
2022-09-11T10:16:01.615Z,12864.00
2022-09-11T10:17:01.528Z,12476.00
2022-09-11T10:18:01.550Z,11872.00
2022-09-11T10:19:01.511Z,11072.00
2022-09-11T10:20:01.500Z,10284.00
2022-09-11T10:21:02.017Z,9624.00
2022-09-11T10:22:02.483Z,9168.00
2022-09-11T10:23:01.505Z,9060.00
2022-09-11T10:24:01.470Z,9252.00
2022-09-11T10:25:01.464Z,9544.00
2022-09-11T10:26:01.456Z,9916.00
2022-09-11T10:27:01.442Z,10300.00
2022-09-11T10:28:01.461Z,10880.00
2022-09-11T10:29:01.436Z,12264.00
2022-09-11T10:30:01.416Z,14348.00
2022-09-11T10:31:01.433Z,15024.00
2022-09-11T10:32:01.397Z,19232.00
2022-09-11T10:33:03.670Z,26336.00
2022-09-11T10:34:02.391Z,44480.00
2022-09-11T10:35:01.377Z,33280.00
2022-09-11T10:36:01.380Z,33568.00
2022-09-11T10:37:01.370Z,42944.00
2022-09-11T10:38:01.352Z,33856.00
2022-09-11T10:39:01.373Z,25632.00
2022-09-11T10:40:01.355Z,22112.00
2022-09-11T10:41:01.328Z,21216.00
2022-09-11T10:42:01.323Z,20832.00
2022-09-11T10:43:01.437Z,20736.00
2022-09-11T10:44:01.299Z,20256.00
2022-09-11T10:45:01.298Z,20352.00
2022-09-11T10:46:01.350Z,23584.00
2022-09-11T10:47:01.278Z,56000.00
2022-09-11T10:48:01.272Z,37376.00
2022-09-11T10:49:01.297Z,36384.00
2022-09-11T10:50:01.252Z,38208.00
2022-09-11T10:51:01.251Z,41632.00
2022-09-11T10:52:01.265Z,30144.00
2022-09-11T10:53:01.240Z,23232.00
2022-09-11T10:54:01.257Z,19488.00
2022-09-11T10:55:01.214Z,16568.00
2022-09-11T10:56:01.201Z,14172.00
2022-09-11T10:57:01.207Z,12320.00
2022-09-11T10:58:01.189Z,11076.00
2022-09-11T10:59:01.212Z,10220.00
2022-09-11T11:00:01.179Z,9464.00
2022-09-11T11:01:01.167Z,8960.00
2022-09-11T11:02:01.193Z,8744.00
2022-09-11T11:03:01.158Z,8612.00
2022-09-11T11:04:01.182Z,8528.00
2022-09-11T11:05:01.137Z,8404.00
2022-09-11T11:06:01.138Z,8204.00
2022-09-11T11:07:01.123Z,8024.00
2022-09-11T11:08:01.127Z,7856.00
2022-09-11T11:09:01.144Z,7732.00
2022-09-11T11:10:07.597Z,7648.00
2022-09-11T11:11:02.107Z,7692.00
2022-09-11T11:12:01.088Z,7900.00
2022-09-11T11:13:01.085Z,8368.00
2022-09-11T11:14:01.103Z,9208.00
2022-09-11T11:15:01.061Z,26144.00
2022-09-11T11:16:01.095Z,79488.00
2022-09-11T11:17:01.044Z,89344.00
2022-09-11T11:18:01.030Z,91968.00
2022-09-11T11:19:01.054Z,92960.00
2022-09-11T11:20:01.021Z,93600.00
2022-09-11T11:21:01.013Z,92448.00
2022-09-11T11:22:01.009Z,78112.00
2022-09-11T11:23:00.994Z,85888.00
2022-09-11T11:24:01.018Z,41376.00
2022-09-11T11:25:00.983Z,48256.00
2022-09-11T11:26:00.968Z,47328.00
2022-09-11T11:27:00.965Z,61920.00
2022-09-11T11:28:00.956Z,29024.00
2022-09-11T11:29:00.982Z,25152.00
2022-09-11T11:30:00.943Z,21440.00
2022-09-11T11:31:00.985Z,18592.00
2022-09-11T11:32:00.938Z,18048.00
2022-09-11T11:33:00.927Z,20320.00
2022-09-11T11:34:00.943Z,20672.00
2022-09-11T11:35:00.898Z,34240.00
2022-09-11T11:36:00.898Z,19392.00
2022-09-11T11:37:00.884Z,16708.00
2022-09-11T11:38:00.873Z,15916.00
2022-09-11T11:39:00.869Z,15408.00
2022-09-11T11:40:00.908Z,15164.00
2022-09-11T11:41:00.852Z,14984.00
2022-09-11T11:42:00.842Z,14828.00
2022-09-11T11:43:00.850Z,14800.00
2022-09-11T11:44:00.830Z,14832.00
2022-09-11T11:45:00.858Z,15288.00
2022-09-11T11:46:00.855Z,71808.00
2022-09-11T11:47:00.804Z,20768.00
2022-09-11T11:48:00.803Z,20320.00
2022-09-11T11:49:00.791Z,61600.00
2022-09-11T11:50:00.816Z,28320.00
2022-09-11T11:51:00.790Z,23392.00
2022-09-11T11:52:00.770Z,20032.00
2022-09-11T11:53:00.760Z,18816.00
2022-09-11T11:54:00.788Z,17984.00
2022-09-11T11:55:00.753Z,17760.00
2022-09-11T11:56:00.733Z,26528.00
2022-09-11T11:57:00.728Z,32576.00
2022-09-11T11:58:00.745Z,43456.00
2022-09-11T11:59:00.744Z,41312.00
2022-09-11T12:00:00.704Z,40416.00
2022-09-11T12:01:00.702Z,42272.00
2022-09-11T12:02:00.714Z,42816.00
2022-09-11T12:03:00.674Z,40480.00
2022-09-11T12:04:00.704Z,39008.00
2022-09-11T12:05:00.668Z,40416.00
2022-09-11T12:06:00.655Z,35040.00
2022-09-11T12:07:00.656Z,28608.00
2022-09-11T12:08:00.650Z,40992.00
2022-09-11T12:09:00.666Z,35808.00
2022-09-11T12:10:00.630Z,29408.00
2022-09-11T12:11:00.627Z,24832.00
2022-09-11T12:12:00.616Z,41120.00
2022-09-11T12:13:00.618Z,40768.00
2022-09-11T12:14:00.630Z,40672.00
2022-09-11T12:15:00.606Z,40288.00
2022-09-11T12:16:00.615Z,38784.00
2022-09-11T12:17:00.573Z,38464.00
2022-09-11T12:18:00.571Z,39168.00
2022-09-11T12:19:00.588Z,39520.00
2022-09-11T12:20:00.552Z,34976.00
2022-09-11T12:21:00.543Z,33408.00
2022-09-11T12:22:00.544Z,24512.00
2022-09-11T12:23:00.539Z,40544.00
2022-09-11T12:24:00.554Z,39200.00
2022-09-11T12:25:00.527Z,39648.00
2022-09-11T12:26:00.520Z,41184.00
2022-09-11T12:27:00.511Z,44000.00
2022-09-11T12:28:00.503Z,45248.00
2022-09-11T12:29:00.526Z,43968.00